createdAt,value
2019-03-22T00:00:42.195Z,49.30
2019-03-22T00:01:22.648Z,54.33
2019-03-22T00:02:00.689Z,52.23
2019-03-22T00:02:39.349Z,51.53
2019-03-22T00:03:17.133Z,49.67
2019-03-22T00:03:55.265Z,54.20
2019-03-22T00:04:33.622Z,52.65
2019-03-22T00:05:11.828Z,49.03
2019-03-22T00:05:49.909Z,60.45
2019-03-22T00:06:28.516Z,54.98
2019-03-22T00:07:06.721Z,63.83
2019-03-22T00:07:45.001Z,47.50
2019-03-22T00:08:23.456Z,58.73
2019-03-22T00:09:01.835Z,63.63
2019-03-22T00:09:58.345Z,59.20
2019-03-22T00:10:36.381Z,60.03
2019-03-22T00:11:14.751Z,58.65
2019-03-22T00:11:53.029Z,58.20
2019-03-22T00:12:31.009Z,57.05
2019-03-22T00:13:08.795Z,55.95
2019-03-22T00:13:47.252Z,53.68
2019-03-22T00:14:25.294Z,57.05
2019-03-22T00:15:04.183Z,53.65
2019-03-22T00:15:42.457Z,55.78
2019-03-22T00:16:20.781Z,49.77
2019-03-22T00:16:59.108Z,56.80
2019-03-22T00:17:37.508Z,54.35
2019-03-22T00:18:15.829Z,55.20
2019-03-22T00:18:54.499Z,53.63
2019-03-22T00:19:32.492Z,56.60
2019-03-22T00:20:10.693Z,58.42
2019-03-22T00:20:48.686Z,64.22
2019-03-22T00:21:26.673Z,55.23
2019-03-22T00:22:04.863Z,61.75
2019-03-22T00:22:42.759Z,57.08
2019-03-22T00:23:21.048Z,64.50
2019-03-22T00:23:58.995Z,54.17
2019-03-22T00:24:36.447Z,48.87
2019-03-22T00:25:15.027Z,51.90
2019-03-22T00:25:53.232Z,50.58
2019-03-22T00:26:32.614Z,50.92
2019-03-22T00:27:16.528Z,52.93
2019-03-22T00:27:50.837Z,52.45
2019-03-22T00:28:28.919Z,57.73
2019-03-22T00:29:06.871Z,55.08
2019-03-22T00:29:44.845Z,50.25
2019-03-22T00:30:23.406Z,47.27
2019-03-22T00:31:01.439Z,60.23
2019-03-22T00:31:39.976Z,54.00
2019-03-22T00:32:18.320Z,53.38
2019-03-22T00:32:56.657Z,51.92
2019-03-22T00:33:35.199Z,51.53
2019-03-22T00:34:13.245Z,54.18
2019-03-22T00:34:51.643Z,50.45
2019-03-22T00:35:29.638Z,56.13
2019-03-22T00:36:08.033Z,56.23
2019-03-22T00:36:46.584Z,56.25
2019-03-22T00:37:24.622Z,52.62
2019-03-22T00:38:02.929Z,51.73
2019-03-22T00:38:41.533Z,52.73
2019-03-22T00:39:19.831Z,58.70
2019-03-22T00:39:57.355Z,63.87
2019-03-22T00:40:36.015Z,54.50
2019-03-22T00:41:14.575Z,56.30
2019-03-22T00:41:52.157Z,68.78
2019-03-22T00:42:30.473Z,51.28
2019-03-22T00:43:08.771Z,59.30
2019-03-22T00:43:46.763Z,59.65
2019-03-22T00:44:25.525Z,53.83
2019-03-22T00:45:03.432Z,49.70
2019-03-22T00:45:41.387Z,63.45
2019-03-22T00:46:19.804Z,65.00
2019-03-22T00:46:58.017Z,51.65
2019-03-22T00:47:36.508Z,52.25
2019-03-22T00:48:15.051Z,52.85
2019-03-22T00:48:52.969Z,50.73
2019-03-22T00:49:31.003Z,54.00
2019-03-22T00:50:09.507Z,54.25
2019-03-22T00:50:47.443Z,55.30
2019-03-22T00:51:25.747Z,56.73
2019-03-22T00:52:03.987Z,57.17
2019-03-22T00:52:42.576Z,55.15
2019-03-22T00:53:20.859Z,55.10
2019-03-22T00:53:58.375Z,56.00
2019-03-22T00:54:36.650Z,56.48
2019-03-22T00:55:14.712Z,51.60
2019-03-22T00:55:52.599Z,57.43
2019-03-22T00:56:31.764Z,53.25
2019-03-22T00:57:09.707Z,58.73
2019-03-22T00:57:48.219Z,51.50
2019-03-22T00:58:26.487Z,54.25
2019-03-22T00:59:04.515Z,48.13
2019-03-22T00:59:43.008Z,54.75
2019-03-22T01:00:21.715Z,51.75
2019-03-22T01:01:00.000Z,47.88
2019-03-22T01:01:38.403Z,52.05
2019-03-22T01:02:17.246Z,54.45
2019-03-22T01:02:54.910Z,60.55
2019-03-22T01:03:33.295Z,59.58
2019-03-22T01:04:11.880Z,56.42
2019-03-22T01:04:50.309Z,48.33
2019-03-22T01:05:28.812Z,52.25
2019-03-22T01:06:06.807Z,51.35
2019-03-22T01:06:45.003Z,54.03
2019-03-22T01:07:23.084Z,51.42
2019-03-22T01:08:01.744Z,50.57
2019-03-22T01:08:39.493Z,55.92
2019-03-22T01:09:17.792Z,57.50
2019-03-22T01:09:56.072Z,48.23
2019-03-22T01:10:33.871Z,51.65
2019-03-22T01:11:12.464Z,53.23
2019-03-22T01:11:50.778Z,51.13
2019-03-22T01:12:29.014Z,55.43
2019-03-22T01:13:06.983Z,50.03
2019-03-22T01:13:45.556Z,57.95
2019-03-22T01:14:23.767Z,48.20
2019-03-22T01:15:02.380Z,52.17
2019-03-22T01:15:40.667Z,47.95
2019-03-22T01:16:19.043Z,56.53
2019-03-22T01:16:57.043Z,52.30
2019-03-22T01:17:35.304Z,55.78
2019-03-22T01:18:13.292Z,48.28
2019-03-22T01:18:51.992Z,48.58
2019-03-22T01:19:30.516Z,50.52
2019-03-22T01:20:08.387Z,45.88
2019-03-22T01:20:45.758Z,51.97
2019-03-22T01:21:24.099Z,45.65
2019-03-22T01:22:02.399Z,49.15
2019-03-22T01:22:41.264Z,49.20
2019-03-22T01:23:19.239Z,48.30
2019-03-22T01:23:59.769Z,50.77
2019-03-22T01:24:37.236Z,42.67
2019-03-22T01:25:15.247Z,48.20
2019-03-22T01:25:53.923Z,50.52
2019-03-22T01:26:32.108Z,51.73
2019-03-22T01:27:10.882Z,45.17
2019-03-22T01:27:49.234Z,52.13
2019-03-22T01:28:27.512Z,51.08
2019-03-22T01:29:06.006Z,47.95
2019-03-22T01:29:44.368Z,52.23
2019-03-22T01:30:22.436Z,50.85
2019-03-22T01:31:00.519Z,50.70
2019-03-22T01:31:38.408Z,56.10
2019-03-22T01:32:16.512Z,48.15
2019-03-22T01:32:54.796Z,41.88
2019-03-22T01:33:32.904Z,50.05
2019-03-22T01:34:11.234Z,44.88
2019-03-22T01:34:49.851Z,46.40
2019-03-22T01:35:28.239Z,48.73
2019-03-22T01:36:06.828Z,51.35
2019-03-22T01:36:45.084Z,42.67
2019-03-22T01:37:23.031Z,51.10
2019-03-22T01:38:01.024Z,44.23
2019-03-22T01:38:39.516Z,47.88
2019-03-22T01:39:17.730Z,46.58
2019-03-22T01:39:56.324Z,40.63
2019-03-22T01:40:34.684Z,43.67
2019-03-22T01:41:13.739Z,48.78
2019-03-22T01:41:52.100Z,49.35
2019-03-22T01:42:30.699Z,58.25
2019-03-22T01:43:09.104Z,42.98
2019-03-22T01:43:47.016Z,44.73
2019-03-22T01:44:25.008Z,44.73
2019-03-22T01:45:02.718Z,49.42
2019-03-22T01:45:40.708Z,42.85
2019-03-22T01:46:18.904Z,47.05
2019-03-22T01:46:57.292Z,44.10
2019-03-22T01:47:35.313Z,53.87
2019-03-22T01:48:13.252Z,46.10
2019-03-22T01:48:51.503Z,48.45
2019-03-22T01:49:30.072Z,49.27
2019-03-22T01:50:10.247Z,49.95
2019-03-22T01:50:47.962Z,45.83
2019-03-22T01:51:25.555Z,54.45
2019-03-22T01:52:04.084Z,55.35
2019-03-22T01:52:42.085Z,46.80
2019-03-22T01:53:20.666Z,43.52
2019-03-22T01:53:58.574Z,46.42
2019-03-22T01:54:36.619Z,42.83
2019-03-22T01:55:15.039Z,48.52
2019-03-22T01:55:52.931Z,41.93
2019-03-22T01:56:30.920Z,44.53
2019-03-22T01:57:08.836Z,43.42
2019-03-22T01:57:52.997Z,48.17
2019-03-22T01:58:27.256Z,45.23
2019-03-22T01:59:05.840Z,47.43
2019-03-22T01:59:44.017Z,43.02
2019-03-22T02:00:22.354Z,37.98
2019-03-22T02:01:00.546Z,43.73
2019-03-22T02:01:38.210Z,43.17
2019-03-22T02:02:16.104Z,44.08
2019-03-22T02:02:54.022Z,40.12
2019-03-22T02:03:31.967Z,43.35
2019-03-22T02:04:09.971Z,43.45
2019-03-22T02:04:47.540Z,48.45
2019-03-22T02:05:26.087Z,39.45
2019-03-22T02:06:04.283Z,39.90
2019-03-22T02:06:42.023Z,41.60
2019-03-22T02:07:20.024Z,44.73
2019-03-22T02:07:57.998Z,41.55
2019-03-22T02:08:36.098Z,42.40
2019-03-22T02:09:13.996Z,43.73
2019-03-22T02:09:52.224Z,47.48
2019-03-22T02:10:30.454Z,39.60
2019-03-22T02:11:08.924Z,47.40
2019-03-22T02:11:47.188Z,40.50
2019-03-22T02:12:25.632Z,52.50
2019-03-22T02:13:03.581Z,44.95
2019-03-22T02:13:41.354Z,46.87
2019-03-22T02:14:20.004Z,45.55
2019-03-22T02:14:57.948Z,46.53
2019-03-22T02:15:36.416Z,49.75
2019-03-22T02:16:14.442Z,48.33
2019-03-22T02:16:55.108Z,47.17
2019-03-22T02:17:33.745Z,47.83
2019-03-22T02:18:12.419Z,50.67
2019-03-22T02:18:50.528Z,50.33
2019-03-22T02:19:29.140Z,48.55
2019-03-22T02:20:07.551Z,49.58
2019-03-22T02:20:45.509Z,54.38
2019-03-22T02:21:23.700Z,57.30
2019-03-22T02:22:02.218Z,51.68
2019-03-22T02:22:40.211Z,57.17
2019-03-22T02:23:18.527Z,55.67
2019-03-22T02:23:56.476Z,56.23
2019-03-22T02:24:34.076Z,60.08
2019-03-22T02:25:12.636Z,58.48
2019-03-22T02:25:50.574Z,59.90
2019-03-22T02:26:28.807Z,57.50
2019-03-22T02:27:07.276Z,56.90
2019-03-22T02:27:45.450Z,61.92
2019-03-22T02:28:23.792Z,63.13
2019-03-22T02:29:20.984Z,65.03
2019-03-22T02:29:59.426Z,71.05
2019-03-22T02:30:37.406Z,74.70
2019-03-22T02:31:15.673Z,72.08
2019-03-22T02:31:53.986Z,70.32
2019-03-22T02:32:32.367Z,62.87
2019-03-22T02:33:10.622Z,66.85
2019-03-22T02:33:48.924Z,68.12
2019-03-22T02:34:27.513Z,77.15
2019-03-22T02:35:06.156Z,72.58
2019-03-22T02:35:44.526Z,69.77
2019-03-22T02:36:23.189Z,60.63
2019-03-22T02:37:01.454Z,65.17
2019-03-22T02:37:40.317Z,70.65
2019-03-22T02:38:18.276Z,60.48
2019-03-22T02:38:56.519Z,60.03
2019-03-22T02:39:53.326Z,57.65
2019-03-22T02:40:32.012Z,62.13
2019-03-22T02:41:10.373Z,55.98
2019-03-22T02:41:48.873Z,61.33
2019-03-22T02:42:27.445Z,63.50
2019-03-22T02:43:05.834Z,62.00
2019-03-22T02:43:44.121Z,64.58
2019-03-22T02:44:22.547Z,60.95
2019-03-22T02:45:00.693Z,65.35
2019-03-22T02:45:39.339Z,77.37
2019-03-22T02:46:17.945Z,72.05
2019-03-22T02:46:56.191Z,64.87
2019-03-22T02:47:35.075Z,60.17
2019-03-22T02:48:13.136Z,76.30
2019-03-22T02:48:51.757Z,68.15
2019-03-22T02:49:29.954Z,68.75
2019-03-22T02:50:17.897Z,65.30
2019-03-22T02:50:48.300Z,70.72
2019-03-22T02:51:26.832Z,64.00
2019-03-22T02:52:05.060Z,56.50
2019-03-22T02:52:43.036Z,49.75
2019-03-22T02:53:21.250Z,52.23
2019-03-22T02:53:59.593Z,44.33
2019-03-22T02:54:37.769Z,47.98
2019-03-22T02:55:15.976Z,46.80
2019-03-22T02:55:54.550Z,45.40
2019-03-22T02:56:33.304Z,51.73
2019-03-22T02:57:11.593Z,54.40
2019-03-22T02:57:50.188Z,52.93
2019-03-22T02:58:28.487Z,49.83
2019-03-22T02:59:06.444Z,57.13
2019-03-22T02:59:45.061Z,54.98
2019-03-22T03:00:23.803Z,53.33
2019-03-22T03:01:02.382Z,57.40
2019-03-22T03:01:40.474Z,57.67
2019-03-22T03:02:18.777Z,57.83
2019-03-22T03:02:56.461Z,56.92
2019-03-22T03:03:34.988Z,49.98
2019-03-22T03:04:12.355Z,56.00
2019-03-22T03:04:50.835Z,54.77
2019-03-22T03:05:28.828Z,56.05
2019-03-22T03:06:07.329Z,61.05
2019-03-22T03:06:45.353Z,60.73
2019-03-22T03:07:24.048Z,53.85
2019-03-22T03:08:02.670Z,52.35
2019-03-22T03:08:40.609Z,50.75
2019-03-22T03:09:18.201Z,52.45
2019-03-22T03:09:56.552Z,58.20
2019-03-22T03:10:34.183Z,49.35
2019-03-22T03:11:12.585Z,53.23
2019-03-22T03:11:50.570Z,49.65
2019-03-22T03:12:28.926Z,53.65
2019-03-22T03:13:06.964Z,53.48
2019-03-22T03:13:45.274Z,40.48
2019-03-22T03:14:23.898Z,47.58
2019-03-22T03:15:02.121Z,51.70
2019-03-22T03:15:40.466Z,59.20
2019-03-22T03:16:18.832Z,57.25
2019-03-22T03:16:57.415Z,45.20
2019-03-22T03:17:35.769Z,51.53
2019-03-22T03:18:13.686Z,36.75
2019-03-22T03:18:51.752Z,42.55
2019-03-22T03:19:30.030Z,43.90
2019-03-22T03:20:08.954Z,44.58
2019-03-22T03:20:46.907Z,40.50
2019-03-22T03:21:25.173Z,44.13
2019-03-22T03:22:03.793Z,48.25
2019-03-22T03:22:42.734Z,39.60
2019-03-22T03:23:20.642Z,39.38
2019-03-22T03:23:58.920Z,40.12
2019-03-22T03:24:37.150Z,39.50
2019-03-22T03:25:16.393Z,46.05
2019-03-22T03:25:54.688Z,41.53
2019-03-22T03:26:32.763Z,43.10
2019-03-22T03:27:11.365Z,44.27
2019-03-22T03:27:49.456Z,40.50
2019-03-22T03:28:36.658Z,40.58
2019-03-22T03:29:08.097Z,39.42
2019-03-22T03:29:45.930Z,44.93
2019-03-22T03:30:24.590Z,43.55
2019-03-22T03:31:02.712Z,39.80
2019-03-22T03:31:40.665Z,37.17
2019-03-22T03:32:19.002Z,37.78
2019-03-22T03:32:57.343Z,41.92
2019-03-22T03:33:35.479Z,37.45
2019-03-22T03:34:14.172Z,39.67
2019-03-22T03:34:52.483Z,38.50
2019-03-22T03:35:31.083Z,35.05
2019-03-22T03:36:09.633Z,35.73
2019-03-22T03:36:48.081Z,34.40
2019-03-22T03:37:26.036Z,34.30
2019-03-22T03:38:04.000Z,36.73
2019-03-22T03:38:42.510Z,40.75
2019-03-22T03:39:20.458Z,33.05
2019-03-22T03:39:58.076Z,41.35
2019-03-22T03:40:36.741Z,35.03
2019-03-22T03:41:15.488Z,36.55
2019-03-22T03:41:54.095Z,31.73
2019-03-22T03:42:32.439Z,32.38
2019-03-22T03:43:10.078Z,25.82
2019-03-22T03:43:48.658Z,32.20
2019-03-22T03:44:27.100Z,30.30
2019-03-22T03:45:32.395Z,26.68
2019-03-22T03:46:11.112Z,33.58
2019-03-22T03:46:49.693Z,28.92
2019-03-22T03:47:28.258Z,24.87
2019-03-22T03:48:08.134Z,27.27
2019-03-22T03:48:46.216Z,26.62
2019-03-22T03:49:24.690Z,28.55
2019-03-22T03:50:02.996Z,32.73
2019-03-22T03:50:41.700Z,29.07
2019-03-22T03:51:19.609Z,25.23
2019-03-22T03:51:58.325Z,25.55
2019-03-22T03:52:39.490Z,24.10
2019-03-22T03:53:16.313Z,29.50
2019-03-22T03:53:54.573Z,27.20
2019-03-22T03:54:32.848Z,25.80
2019-03-22T03:55:11.344Z,27.27
2019-03-22T03:55:49.654Z,29.87
2019-03-22T03:56:28.069Z,29.70
2019-03-22T03:57:05.731Z,26.00
2019-03-22T03:57:43.867Z,30.02
2019-03-22T03:58:22.493Z,25.88
2019-03-22T03:59:01.233Z,28.32
2019-03-22T03:59:42.145Z,23.25
2019-03-22T04:00:20.624Z,23.98
2019-03-22T04:00:58.735Z,24.77
2019-03-22T04:01:36.358Z,23.38
2019-03-22T04:02:14.906Z,24.30
2019-03-22T04:02:53.377Z,22.05
2019-03-22T04:03:31.385Z,19.77
2019-03-22T04:04:09.614Z,26.05
2019-03-22T04:04:47.560Z,20.17
2019-03-22T04:05:26.187Z,19.23
2019-03-22T04:06:04.969Z,21.65
2019-03-22T04:06:50.441Z,22.52
2019-03-22T04:07:28.221Z,23.15
2019-03-22T04:08:07.041Z,23.95
2019-03-22T04:08:45.452Z,24.10
2019-03-22T04:09:23.140Z,22.13
2019-03-22T04:10:01.107Z,27.22
2019-03-22T04:10:39.382Z,24.30
2019-03-22T04:11:17.341Z,25.57
2019-03-22T04:11:56.127Z,22.58
2019-03-22T04:12:34.092Z,22.27
2019-03-22T04:13:12.017Z,24.23
2019-03-22T04:13:50.847Z,23.22
2019-03-22T04:14:29.020Z,23.75
2019-03-22T04:15:07.444Z,20.60
2019-03-22T04:15:45.705Z,23.85
2019-03-22T04:16:23.677Z,22.05
2019-03-22T04:17:01.913Z,24.80
2019-03-22T04:17:40.124Z,21.95
2019-03-22T04:18:18.485Z,24.45
2019-03-22T04:18:56.734Z,23.32
2019-03-22T04:19:34.874Z,22.05
2019-03-22T04:20:12.929Z,26.75
2019-03-22T04:20:51.399Z,21.60
2019-03-22T04:21:29.754Z,22.10
2019-03-22T04:22:07.844Z,22.90
2019-03-22T04:22:45.818Z,22.40
2019-03-22T04:23:23.915Z,22.10
2019-03-22T04:24:01.915Z,21.10
2019-03-22T04:24:40.341Z,18.87
2019-03-22T04:25:18.418Z,26.80
2019-03-22T04:25:56.036Z,24.65
2019-03-22T04:26:34.532Z,23.47
2019-03-22T04:27:12.505Z,26.48
2019-03-22T04:27:50.119Z,30.65
2019-03-22T04:28:28.412Z,24.85
2019-03-22T04:29:08.272Z,25.17
2019-03-22T04:29:46.931Z,26.90
2019-03-22T04:30:25.253Z,22.73
2019-03-22T04:31:03.817Z,25.00
2019-03-22T04:31:42.104Z,24.65
2019-03-22T04:32:19.614Z,26.33
2019-03-22T04:33:16.538Z,26.68
2019-03-22T04:33:57.728Z,25.17
2019-03-22T04:34:36.298Z,28.50
2019-03-22T04:35:14.886Z,22.13
2019-03-22T04:35:53.471Z,22.30
2019-03-22T04:36:32.083Z,24.25
2019-03-22T04:37:10.529Z,17.90
2019-03-22T04:37:49.079Z,22.10
2019-03-22T04:38:27.604Z,22.30
2019-03-22T04:39:07.493Z,25.55
2019-03-22T04:39:45.465Z,19.75
2019-03-22T04:40:25.367Z,19.35
2019-03-22T04:41:03.641Z,21.05
2019-03-22T04:41:41.963Z,19.45
2019-03-22T04:42:20.513Z,20.57
2019-03-22T04:42:59.111Z,23.38
2019-03-22T04:43:37.840Z,21.02
2019-03-22T04:44:16.619Z,25.37
2019-03-22T04:44:54.898Z,25.70
2019-03-22T04:45:34.811Z,21.50
2019-03-22T04:46:14.359Z,22.22
2019-03-22T04:46:53.101Z,23.70
2019-03-22T04:47:51.536Z,23.10
2019-03-22T04:48:33.451Z,20.27
2019-03-22T04:49:12.433Z,23.20
2019-03-22T04:49:51.575Z,20.32
2019-03-22T04:50:31.597Z,21.25
2019-03-22T04:51:10.635Z,20.43
2019-03-22T04:51:50.003Z,26.17
2019-03-22T04:52:28.863Z,20.80
2019-03-22T04:53:08.057Z,20.23
2019-03-22T04:53:52.635Z,24.37
2019-03-22T04:54:33.348Z,22.82
2019-03-22T04:55:12.790Z,21.97
2019-03-22T04:55:56.070Z,22.95
2019-03-22T04:56:37.767Z,21.17
2019-03-22T04:57:17.653Z,19.42
2019-03-22T04:57:56.650Z,23.02
2019-03-22T04:58:36.448Z,18.98
2019-03-22T04:59:19.229Z,26.80
2019-03-22T04:59:56.982Z,19.57
2019-03-22T05:00:35.983Z,20.90
2019-03-22T05:01:16.263Z,20.20
2019-03-22T05:01:57.110Z,23.30
2019-03-22T05:02:35.845Z,24.12
2019-03-22T05:03:15.249Z,24.50
2019-03-22T05:03:54.250Z,19.00
2019-03-22T05:04:32.923Z,22.35
2019-03-22T05:05:12.582Z,23.70
2019-03-22T05:05:52.725Z,23.92
2019-03-22T05:06:33.641Z,22.77
2019-03-22T05:07:11.905Z,19.92
2019-03-22T05:07:50.089Z,18.90
2019-03-22T05:08:31.431Z,17.55
2019-03-22T05:09:12.721Z,19.40
2019-03-22T05:09:51.743Z,20.90
2019-03-22T05:10:30.763Z,18.35
2019-03-22T05:11:11.853Z,18.95
2019-03-22T05:11:50.699Z,18.20
2019-03-22T05:12:28.911Z,18.32
2019-03-22T05:13:09.114Z,21.03
2019-03-22T05:13:51.221Z,17.15
2019-03-22T05:14:31.750Z,18.73
2019-03-22T05:15:13.288Z,19.85
2019-03-22T05:15:52.763Z,23.87
2019-03-22T05:16:31.569Z,20.68
2019-03-22T05:17:12.029Z,20.23
2019-03-22T05:17:51.032Z,23.12
2019-03-22T05:18:34.144Z,22.77
2019-03-22T05:19:14.067Z,22.02
2019-03-22T05:19:55.327Z,25.35
2019-03-22T05:20:35.928Z,23.85
2019-03-22T05:21:15.658Z,23.98
2019-03-22T05:21:55.362Z,20.92
2019-03-22T05:22:35.907Z,22.50
2019-03-22T05:23:15.213Z,21.95
2019-03-22T05:23:56.652Z,19.80
2019-03-22T05:24:36.319Z,24.77
2019-03-22T05:25:15.073Z,21.85
2019-03-22T05:25:55.998Z,21.93
2019-03-22T05:26:37.148Z,18.48
2019-03-22T05:27:16.349Z,21.23
2019-03-22T05:27:55.994Z,19.55
2019-03-22T05:28:38.083Z,19.67
2019-03-22T05:29:17.222Z,18.55
2019-03-22T05:29:57.679Z,20.20
2019-03-22T05:31:14.470Z,22.87
2019-03-22T05:32:04.921Z,21.80
2019-03-22T05:32:43.467Z,18.42
2019-03-22T05:33:22.064Z,26.02
2019-03-22T05:33:59.670Z,20.27
2019-03-22T05:34:37.631Z,19.35
2019-03-22T05:35:15.817Z,23.02
2019-03-22T05:35:54.388Z,21.48
2019-03-22T05:36:32.505Z,18.57
2019-03-22T05:37:10.717Z,19.52
2019-03-22T05:37:49.250Z,17.50
2019-03-22T05:38:27.239Z,20.30
2019-03-22T05:39:07.570Z,18.67
2019-03-22T05:39:46.442Z,19.70
2019-03-22T05:40:24.052Z,22.77
2019-03-22T05:41:01.759Z,17.73
2019-03-22T05:41:40.317Z,21.30
2019-03-22T05:42:18.944Z,20.00
2019-03-22T05:42:57.346Z,20.30
2019-03-22T05:43:35.900Z,17.82
2019-03-22T05:44:14.485Z,15.25
2019-03-22T05:44:52.468Z,15.50
2019-03-22T05:45:31.084Z,19.87
2019-03-22T05:46:09.790Z,22.10
2019-03-22T05:46:48.979Z,22.42
2019-03-22T05:47:27.357Z,20.97
2019-03-22T05:48:05.928Z,22.05
2019-03-22T05:48:44.329Z,16.57
2019-03-22T05:49:22.841Z,18.07
2019-03-22T05:50:01.139Z,17.67
2019-03-22T05:50:39.424Z,22.00
2019-03-22T05:51:17.932Z,22.93
2019-03-22T05:51:55.764Z,22.50
2019-03-22T05:52:33.719Z,19.95
2019-03-22T05:53:11.380Z,17.40
2019-03-22T05:53:49.685Z,18.20
2019-03-22T05:54:28.343Z,21.17
2019-03-22T05:55:07.567Z,20.80
2019-03-22T05:55:45.613Z,21.70
2019-03-22T05:56:24.259Z,22.27
2019-03-22T05:57:12.792Z,18.33
2019-03-22T05:57:42.276Z,20.70
2019-03-22T05:58:20.910Z,22.05
2019-03-22T05:58:59.101Z,18.87
2019-03-22T05:59:42.333Z,18.87
2019-03-22T06:00:17.803Z,14.75
2019-03-22T06:00:55.839Z,22.85
2019-03-22T06:01:34.006Z,18.00
2019-03-22T06:02:12.731Z,17.85
2019-03-22T06:02:50.812Z,18.92
2019-03-22T06:03:29.513Z,18.23
2019-03-22T06:04:08.205Z,21.97
2019-03-22T06:04:46.309Z,18.05
2019-03-22T06:05:24.511Z,17.90
2019-03-22T06:06:03.214Z,18.17
2019-03-22T06:06:42.311Z,17.57
2019-03-22T06:07:21.207Z,19.17
2019-03-22T06:07:59.689Z,19.57
2019-03-22T06:08:40.430Z,17.48
2019-03-22T06:09:18.664Z,19.17
2019-03-22T06:09:57.224Z,20.48
2019-03-22T06:10:35.168Z,19.67
2019-03-22T06:11:13.318Z,18.40
2019-03-22T06:11:51.993Z,17.80
2019-03-22T06:12:30.736Z,18.00
2019-03-22T06:13:09.319Z,17.02
2019-03-22T06:13:47.876Z,17.40
2019-03-22T06:14:26.744Z,18.05
2019-03-22T06:15:05.484Z,17.07
2019-03-22T06:15:43.947Z,14.90
2019-03-22T06:16:22.699Z,17.82
2019-03-22T06:17:01.205Z,17.35
2019-03-22T06:17:50.976Z,17.37
2019-03-22T06:18:20.247Z,15.18
2019-03-22T06:18:58.727Z,17.52
2019-03-22T06:19:37.176Z,16.15
2019-03-22T06:20:16.116Z,16.57
2019-03-22T06:20:54.185Z,18.07
2019-03-22T06:21:32.482Z,16.42
2019-03-22T06:22:10.846Z,16.97
2019-03-22T06:22:48.911Z,15.75
2019-03-22T06:23:27.210Z,18.15
2019-03-22T06:24:05.800Z,17.52
2019-03-22T06:24:44.079Z,14.55
2019-03-22T06:25:22.113Z,14.87
2019-03-22T06:26:00.097Z,16.87
2019-03-22T06:26:38.340Z,17.55
2019-03-22T06:27:16.386Z,14.43
2019-03-22T06:27:54.007Z,17.25
2019-03-22T06:28:31.968Z,19.23
2019-03-22T06:29:09.680Z,16.65
2019-03-22T06:29:54.078Z,18.80
2019-03-22T06:30:27.908Z,13.60
2019-03-22T06:31:06.250Z,18.98
2019-03-22T06:31:44.368Z,16.30
2019-03-22T06:32:22.995Z,14.60
2019-03-22T06:33:01.212Z,16.40
2019-03-22T06:33:39.460Z,17.60
2019-03-22T06:34:17.856Z,16.87
2019-03-22T06:34:55.884Z,17.87
2019-03-22T06:35:33.887Z,18.02
2019-03-22T06:36:12.089Z,16.50
2019-03-22T06:36:50.042Z,22.10
2019-03-22T06:37:28.567Z,17.05
2019-03-22T06:38:07.271Z,13.20
2019-03-22T06:38:44.924Z,12.57
2019-03-22T06:39:23.385Z,19.12
2019-03-22T06:40:01.366Z,14.17
2019-03-22T06:40:40.054Z,14.60
2019-03-22T06:41:18.219Z,13.53
2019-03-22T06:41:56.516Z,15.48
2019-03-22T06:42:34.505Z,14.07
2019-03-22T06:43:12.415Z,12.23
2019-03-22T06:43:50.636Z,12.45
2019-03-22T06:44:29.150Z,10.43
2019-03-22T06:45:13.517Z,12.33
2019-03-22T06:45:52.254Z,9.38
2019-03-22T06:46:31.047Z,11.03
2019-03-22T06:47:11.037Z,10.72
2019-03-22T06:47:50.058Z,10.48
2019-03-22T06:48:27.987Z,7.65
2019-03-22T06:49:06.841Z,9.60
2019-03-22T06:49:45.126Z,10.30
2019-03-22T06:50:22.867Z,10.50
2019-03-22T06:51:00.880Z,12.00
2019-03-22T06:51:39.189Z,11.20
2019-03-22T06:52:16.558Z,9.10
2019-03-22T06:52:54.712Z,10.82
2019-03-22T06:53:33.092Z,8.00
2019-03-22T06:54:11.342Z,7.97
2019-03-22T06:54:49.640Z,7.78
2019-03-22T06:55:27.532Z,8.10
2019-03-22T06:56:05.876Z,10.53
2019-03-22T06:56:46.951Z,4.72
2019-03-22T06:57:25.021Z,7.40
2019-03-22T06:58:02.986Z,4.55
2019-03-22T06:58:41.605Z,5.65
2019-03-22T06:59:38.407Z,7.37
2019-03-22T07:00:16.394Z,5.63
2019-03-22T07:00:54.317Z,5.10
2019-03-22T07:01:31.984Z,5.33
2019-03-22T07:02:10.076Z,7.28
2019-03-22T07:02:48.580Z,5.60
2019-03-22T07:03:26.186Z,7.60
2019-03-22T07:04:04.667Z,6.78
2019-03-22T07:04:42.947Z,5.62
2019-03-22T07:05:21.130Z,5.08
2019-03-22T07:05:59.506Z,6.55
2019-03-22T07:06:37.894Z,5.87
2019-03-22T07:07:15.838Z,7.05
2019-03-22T07:07:54.260Z,6.15
2019-03-22T07:08:32.720Z,7.92
2019-03-22T07:09:11.136Z,5.47
2019-03-22T07:09:49.736Z,8.68
2019-03-22T07:10:28.015Z,6.25
2019-03-22T07:11:06.440Z,6.33
2019-03-22T07:11:44.327Z,7.47
2019-03-22T07:12:22.230Z,8.23
2019-03-22T07:13:00.776Z,7.80
2019-03-22T07:13:38.038Z,8.13
2019-03-22T07:14:15.428Z,10.47
2019-03-22T07:14:53.311Z,9.25
2019-03-22T07:15:30.964Z,7.72
2019-03-22T07:16:09.336Z,9.90
2019-03-22T07:16:47.521Z,8.45
2019-03-22T07:17:25.539Z,8.95
2019-03-22T07:18:03.860Z,9.88
2019-03-22T07:18:42.045Z,10.73
2019-03-22T07:19:19.082Z,9.57
2019-03-22T07:19:56.357Z,8.40
2019-03-22T07:20:33.598Z,8.13
2019-03-22T07:21:11.567Z,8.65
2019-03-22T07:21:49.619Z,7.83
2019-03-22T07:22:27.340Z,8.47
2019-03-22T07:23:05.729Z,7.22
2019-03-22T07:23:43.187Z,9.63
2019-03-22T07:24:21.404Z,7.12
2019-03-22T07:24:59.379Z,9.15
2019-03-22T07:25:37.366Z,8.08
2019-03-22T07:26:15.991Z,8.90
2019-03-22T07:26:54.625Z,6.97
2019-03-22T07:27:33.090Z,9.20
2019-03-22T07:28:11.592Z,9.18
2019-03-22T07:28:50.068Z,12.03
2019-03-22T07:29:28.075Z,7.25
2019-03-22T07:30:17.878Z,9.63
2019-03-22T07:30:46.343Z,7.80
2019-03-22T07:31:24.706Z,9.57
2019-03-22T07:32:03.209Z,8.08
2019-03-22T07:32:41.403Z,9.78
2019-03-22T07:33:19.926Z,8.93
2019-03-22T07:33:58.116Z,9.60
2019-03-22T07:34:36.975Z,8.88
2019-03-22T07:35:15.372Z,8.07
2019-03-22T07:35:53.636Z,9.28
2019-03-22T07:36:31.636Z,8.40
2019-03-22T07:37:10.414Z,8.88
2019-03-22T07:37:48.750Z,9.20
2019-03-22T07:38:27.322Z,7.70
2019-03-22T07:39:07.917Z,10.13
2019-03-22T07:39:46.496Z,8.78
2019-03-22T07:40:25.156Z,8.30
2019-03-22T07:41:03.187Z,8.67
2019-03-22T07:41:41.796Z,8.63
2019-03-22T07:42:20.044Z,9.60
2019-03-22T07:42:57.767Z,8.60
2019-03-22T07:43:36.330Z,7.45
2019-03-22T07:44:14.986Z,9.43
2019-03-22T07:44:52.960Z,8.00
2019-03-22T07:45:30.978Z,9.48
2019-03-22T07:46:09.232Z,8.68
2019-03-22T07:46:47.522Z,9.10
2019-03-22T07:47:26.196Z,11.22
2019-03-22T07:48:04.184Z,10.53
2019-03-22T07:48:42.752Z,9.33
2019-03-22T07:49:20.953Z,8.63
2019-03-22T07:49:58.628Z,10.20
2019-03-22T07:50:36.700Z,8.38
2019-03-22T07:51:14.333Z,7.23
2019-03-22T07:51:52.608Z,8.40
2019-03-22T07:52:31.242Z,7.53
2019-03-22T07:53:09.072Z,8.67
2019-03-22T07:53:46.779Z,9.63
2019-03-22T07:54:25.228Z,8.75
2019-03-22T07:55:03.564Z,8.50
2019-03-22T07:55:41.704Z,9.30
2019-03-22T07:56:19.932Z,7.40
2019-03-22T07:56:58.534Z,7.90
2019-03-22T07:57:36.468Z,7.72
2019-03-22T07:58:14.663Z,4.97
2019-03-22T07:58:52.885Z,5.97
2019-03-22T07:59:31.066Z,6.37
2019-03-22T08:00:09.868Z,6.85
2019-03-22T08:00:48.481Z,7.55
2019-03-22T08:01:26.548Z,6.08
2019-03-22T08:02:04.818Z,6.62
2019-03-22T08:02:43.018Z,10.35
2019-03-22T08:03:21.396Z,7.43
2019-03-22T08:04:00.006Z,8.20
2019-03-22T08:04:38.242Z,7.20
2019-03-22T08:05:16.824Z,8.20
2019-03-22T08:05:55.507Z,6.50
2019-03-22T08:06:33.498Z,5.67
2019-03-22T08:07:11.756Z,9.18
2019-03-22T08:07:49.324Z,6.33
2019-03-22T08:08:27.424Z,7.28
2019-03-22T08:09:08.372Z,6.60
2019-03-22T08:09:46.024Z,8.13
2019-03-22T08:10:24.468Z,5.83
2019-03-22T08:11:01.774Z,8.70
2019-03-22T08:11:40.934Z,5.72
2019-03-22T08:12:19.585Z,6.45
2019-03-22T08:12:58.177Z,6.83
2019-03-22T08:13:36.716Z,6.60
2019-03-22T08:14:16.420Z,7.93
2019-03-22T08:14:54.652Z,6.80
2019-03-22T08:15:33.951Z,7.93
2019-03-22T08:16:12.020Z,6.50
2019-03-22T08:16:50.445Z,7.73
2019-03-22T08:17:28.757Z,6.00
2019-03-22T08:18:06.920Z,8.00
2019-03-22T08:18:45.506Z,8.60
2019-03-22T08:19:24.021Z,8.03
2019-03-22T08:20:02.469Z,7.95
2019-03-22T08:20:40.106Z,6.75
2019-03-22T08:21:18.846Z,8.13
2019-03-22T08:21:57.278Z,7.10
2019-03-22T08:22:35.378Z,8.03